KBMG

Monroe County Airport

Bloomington, Indiana, USA
METAR KBMG 230053Z 21008KT 10SM CLR 13/04 A3012 RMK AO2 SLP200 T01330039
Observed Flight Rules
Oct-23 @ 00:53 UTC (8 minutes ago) Visual Flight Rules
Wind Visibility Clouds
210° at 8 knots 10 miles
  • Clear skies
Temperatures Readings
Current 13°C / 55°F
Dewpoint 4°C / 39°F
Humidity 55%
Altimeter 30.12" Hg
Pressure 1020 hPa
Elevation 257
METAR KBMG 230053Z 21008KT 10SM CLR 13/04 A3012 RMK AO2 SLP200 T01330039
Observed Flight Rules
Oct-23 @ 00:53 UTC
(8 minutes ago)
VFR
Wind Visibility
210° at 8 knots 10 miles
Clouds
  • Clear skies
Temperature Dewpoint
13°C / 55°F 4°C / 39°F
Humidity Altimeter Pressure
55% 30.12" Hg 1020 hPa